createdAt,value
2018-12-12T00:01:40.688Z,63.44
2018-12-12T00:04:11.309Z,63.41
2018-12-12T00:06:41.846Z,63.36
2018-12-12T00:09:10.245Z,63.25
2018-12-12T00:11:39.985Z,63.20
2018-12-12T00:14:08.479Z,63.18
2018-12-12T00:16:36.847Z,62.95
2018-12-12T00:19:05.537Z,62.89
2018-12-12T00:24:15.800Z,63.33
2018-12-12T00:26:44.155Z,63.79
2018-12-12T00:29:12.520Z,63.56
2018-12-12T00:31:41.209Z,63.38
2018-12-12T00:36:51.320Z,63.07
2018-12-12T00:39:19.719Z,63.25
2018-12-12T00:41:48.151Z,63.53
2018-12-12T00:44:16.563Z,63.31
2018-12-12T00:46:45.337Z,63.04
2018-12-12T00:49:14.024Z,63.78
2018-12-12T00:51:42.600Z,63.77
2018-12-12T00:56:52.866Z,63.78
2018-12-12T00:59:21.259Z,63.77
2018-12-12T01:01:49.561Z,63.28
2018-12-12T01:04:18.251Z,63.75
2018-12-12T01:06:46.713Z,63.36
2018-12-12T01:12:03.113Z,63.85
2018-12-12T01:17:13.323Z,63.41
2018-12-12T01:19:41.672Z,63.39
2018-12-12T01:24:51.800Z,63.72
2018-12-12T01:27:20.215Z,63.82
2018-12-12T01:29:48.693Z,63.90
2018-12-12T01:32:17.171Z,63.27
2018-12-12T01:34:45.524Z,63.35
2018-12-12T01:39:56.254Z,63.43
2018-12-12T01:45:06.559Z,63.37
2018-12-12T01:47:34.905Z,64.19
2018-12-12T01:50:04.241Z,63.25
2018-12-12T01:55:14.620Z,64.03
2018-12-12T01:57:42.945Z,64.10
2018-12-12T02:00:11.291Z,63.94
2018-12-12T02:02:39.796Z,63.23
2018-12-12T02:05:09.533Z,63.59
2018-12-12T02:07:38.101Z,63.68
2018-12-12T02:10:07.421Z,64.19
2018-12-12T02:15:18.274Z,63.81
2018-12-12T02:17:46.695Z,63.76
2018-12-12T02:20:15.035Z,63.47
2018-12-12T02:25:25.190Z,64.41
2018-12-12T02:27:53.723Z,64.22
2018-12-12T02:30:22.081Z,64.32
2018-12-12T02:32:50.488Z,64.06
2018-12-12T02:38:01.459Z,63.99
2018-12-12T02:40:30.238Z,63.91
2018-12-12T02:42:58.735Z,64.28
2018-12-12T02:45:27.038Z,63.92
2018-12-12T02:47:55.629Z,64.33
2018-12-12T02:50:24.084Z,64.22
2018-12-12T02:52:52.406Z,63.52
2018-12-12T02:55:20.801Z,63.78
2018-12-12T02:57:49.117Z,63.91
2018-12-12T03:00:17.496Z,63.84
2018-12-12T03:02:45.826Z,63.50
2018-12-12T03:05:14.153Z,64.23
2018-12-12T03:07:45.961Z,64.30
2018-12-12T03:10:14.341Z,64.23
2018-12-12T03:12:42.822Z,64.25
2018-12-12T03:15:11.254Z,63.72
2018-12-12T03:17:39.632Z,63.89
2018-12-12T03:20:08.171Z,64.39
2018-12-12T03:22:36.639Z,64.85
2018-12-12T03:25:05.376Z,64.34
2018-12-12T03:27:33.674Z,64.49
2018-12-12T03:30:02.669Z,63.70
2018-12-12T03:32:31.218Z,63.79
2018-12-12T03:34:59.664Z,63.94
2018-12-12T03:37:27.948Z,64.96
2018-12-12T03:39:56.781Z,63.92
2018-12-12T03:42:25.764Z,65.17
2018-12-12T03:44:54.115Z,65.06
2018-12-12T03:47:22.527Z,64.76
2018-12-12T03:49:50.819Z,64.25
2018-12-12T03:55:00.918Z,63.96
2018-12-12T03:57:29.295Z,64.18
2018-12-12T03:59:57.563Z,64.38
2018-12-12T04:02:25.830Z,64.15
2018-12-12T04:04:54.287Z,64.22
2018-12-12T04:10:06.837Z,64.56
2018-12-12T04:12:35.161Z,65.29
2018-12-12T04:15:03.856Z,64.96
2018-12-12T04:17:33.332Z,64.98
2018-12-12T04:22:43.353Z,64.40
2018-12-12T04:27:53.987Z,65.11
2018-12-12T04:30:22.332Z,64.95
2018-12-12T04:32:50.985Z,64.23
2018-12-12T04:38:01.537Z,64.57
2018-12-12T04:40:29.785Z,64.27
2018-12-12T04:45:40.397Z,64.98
2018-12-12T04:48:08.872Z,65.20
2018-12-12T04:50:37.248Z,64.57
2018-12-12T04:53:05.670Z,64.53
2018-12-12T04:58:15.965Z,64.28
2018-12-12T05:00:44.627Z,64.30
2018-12-12T05:05:54.802Z,65.18
2018-12-12T05:08:23.193Z,64.99
2018-12-12T05:10:51.674Z,65.27
2018-12-12T05:13:20.199Z,64.75
2018-12-12T05:18:30.653Z,64.12
2018-12-12T05:20:59.218Z,65.19
2018-12-12T05:26:10.534Z,64.99
2018-12-12T05:28:39.021Z,64.80
2018-12-12T05:31:07.557Z,64.26
2018-12-12T05:33:35.924Z,64.50
2018-12-12T05:38:46.522Z,64.88
2018-12-12T05:41:15.031Z,64.52
2018-12-12T05:43:43.381Z,64.23
2018-12-12T05:46:12.929Z,64.75
2018-12-12T05:48:41.360Z,64.84
2018-12-12T05:51:09.729Z,65.27
2018-12-12T05:53:38.171Z,65.38
2018-12-12T05:56:06.503Z,65.23
2018-12-12T05:58:34.817Z,64.35
2018-12-12T06:01:03.536Z,64.42
2018-12-12T06:03:31.855Z,64.66
2018-12-12T06:06:00.151Z,65.26
2018-12-12T06:08:28.679Z,65.25
2018-12-12T06:13:38.850Z,64.57
2018-12-12T06:16:07.605Z,64.81
2018-12-12T06:18:35.866Z,64.98
2018-12-12T06:21:05.445Z,65.27
2018-12-12T06:23:33.871Z,65.03
2018-12-12T06:26:02.158Z,64.63
2018-12-12T06:31:12.250Z,64.53
2018-12-12T06:33:40.584Z,65.42
2018-12-12T06:36:08.953Z,64.97
2018-12-12T06:38:37.280Z,64.48
2018-12-12T06:41:05.592Z,64.31
2018-12-12T06:46:15.851Z,64.84
2018-12-12T06:48:44.172Z,65.34
2018-12-12T06:51:12.504Z,64.60
2018-12-12T06:53:40.774Z,65.28
2018-12-12T06:56:09.344Z,65.07
2018-12-12T06:58:37.675Z,64.44
2018-12-12T07:01:06.265Z,65.23
2018-12-12T07:06:16.728Z,64.71
2018-12-12T07:08:45.044Z,64.90
2018-12-12T07:11:13.404Z,64.86
2018-12-12T07:13:41.747Z,64.88
2018-12-12T07:18:52.437Z,65.49
2018-12-12T07:21:26.254Z,65.58
2018-12-12T07:26:36.329Z,64.82
2018-12-12T07:29:04.913Z,64.78
2018-12-12T07:31:33.303Z,65.22
2018-12-12T07:34:02.006Z,65.10
2018-12-12T07:39:17.747Z,65.24
2018-12-12T07:41:42.791Z,65.24
2018-12-12T07:46:55.053Z,65.09
2018-12-12T07:49:25.739Z,65.68
2018-12-12T07:54:55.898Z,64.91
2018-12-12T07:57:24.156Z,65.27
2018-12-12T07:59:52.471Z,65.42
2018-12-12T08:02:22.140Z,64.82
2018-12-12T08:04:50.462Z,65.75
2018-12-12T08:10:00.881Z,65.92
2018-12-12T08:12:29.245Z,64.74
2018-12-12T08:17:39.292Z,65.03
2018-12-12T08:20:07.771Z,65.74
2018-12-12T08:22:36.117Z,66.01
2018-12-12T08:25:05.051Z,65.42
2018-12-12T08:27:33.365Z,65.44
2018-12-12T08:30:02.041Z,65.40
2018-12-12T08:32:30.379Z,65.62
2018-12-12T08:34:58.782Z,65.41
2018-12-12T08:37:27.148Z,65.73
2018-12-12T08:39:56.005Z,64.93
2018-12-12T08:42:24.298Z,65.74
2018-12-12T08:44:52.631Z,65.51
2018-12-12T08:47:21.058Z,65.08
2018-12-12T08:49:49.403Z,65.59
2018-12-12T08:52:17.738Z,64.65
2018-12-12T08:54:46.091Z,65.58
2018-12-12T08:57:15.073Z,65.67
2018-12-12T08:59:43.597Z,65.42
2018-12-12T09:02:11.932Z,65.58
2018-12-12T09:04:40.301Z,65.71
2018-12-12T09:07:08.723Z,65.49
2018-12-12T09:09:37.135Z,65.60
2018-12-12T09:12:05.565Z,65.02
2018-12-12T09:14:33.992Z,65.77
2018-12-12T09:17:09.489Z,65.50
2018-12-12T09:22:19.175Z,64.89
2018-12-12T09:24:48.077Z,65.13
2018-12-12T09:29:58.159Z,64.53
2018-12-12T09:35:10.806Z,64.09
2018-12-12T09:37:39.187Z,64.15
2018-12-12T09:40:07.520Z,63.71
2018-12-12T09:42:35.797Z,62.84
2018-12-12T09:45:04.973Z,63.16
2018-12-12T09:50:15.837Z,62.41
2018-12-12T09:52:46.223Z,61.65
2018-12-12T09:57:58.456Z,61.88
2018-12-12T10:00:26.769Z,61.58
2018-12-12T10:05:33.844Z,61.49
2018-12-12T10:08:02.186Z,61.62
2018-12-12T10:10:30.456Z,61.55
2018-12-12T10:12:58.843Z,61.71
2018-12-12T10:15:27.279Z,61.44
2018-12-12T10:17:55.613Z,61.79
2018-12-12T10:20:23.943Z,61.58
2018-12-12T10:22:52.383Z,61.87
2018-12-12T10:25:20.942Z,61.72
2018-12-12T10:30:31.127Z,61.49
2018-12-12T10:32:59.452Z,61.49
2018-12-12T10:35:27.789Z,62.11
2018-12-12T10:37:56.245Z,62.09
2018-12-12T10:40:24.582Z,61.79
2018-12-12T10:45:35.366Z,62.37
2018-12-12T10:48:03.830Z,62.08
2018-12-12T10:50:32.189Z,62.45
2018-12-12T10:53:00.578Z,62.19
2018-12-12T10:55:28.930Z,61.92
2018-12-12T10:57:57.269Z,61.96
2018-12-12T11:00:25.763Z,61.87
2018-12-12T11:05:47.483Z,62.56
2018-12-12T11:08:17.220Z,62.20
2018-12-12T11:10:45.557Z,62.45
2018-12-12T11:13:13.896Z,62.28
2018-12-12T11:15:42.243Z,62.50
2018-12-12T11:18:10.567Z,62.26
2018-12-12T11:23:20.718Z,62.67
2018-12-12T11:25:49.081Z,62.64
2018-12-12T11:28:17.585Z,62.44
2018-12-12T11:30:46.023Z,62.60
2018-12-12T11:33:14.305Z,62.37
2018-12-12T11:35:42.705Z,62.23
2018-12-12T11:38:11.034Z,62.08
2018-12-12T11:40:39.423Z,61.48
2018-12-12T11:45:49.817Z,61.18
2018-12-12T11:48:18.274Z,61.13
2018-12-12T11:50:46.647Z,61.18
2018-12-12T11:53:14.959Z,60.94
2018-12-12T11:55:43.342Z,61.07
2018-12-12T11:58:11.982Z,60.70
2018-12-12T12:00:40.279Z,60.59
2018-12-12T12:05:52.334Z,61.13
2018-12-12T12:08:20.687Z,60.59
2018-12-12T12:10:49.048Z,60.91
2018-12-12T12:13:19.436Z,61.01
2018-12-12T12:18:29.856Z,60.58
2018-12-12T12:20:58.192Z,60.50
2018-12-12T12:26:09.872Z,60.73
2018-12-12T12:28:38.269Z,60.91
2018-12-12T12:31:06.609Z,61.19
2018-12-12T12:33:34.928Z,61.35
2018-12-12T12:38:45.292Z,61.58
2018-12-12T12:41:14.725Z,61.31
2018-12-12T12:43:43.140Z,60.90
2018-12-12T12:46:11.951Z,61.61
2018-12-12T12:48:40.352Z,61.25
2018-12-12T12:51:09.179Z,61.36
2018-12-12T12:53:37.507Z,61.13
2018-12-12T12:56:06.852Z,61.43
2018-12-12T12:58:35.285Z,61.30
2018-12-12T13:01:03.998Z,61.46
2018-12-12T13:03:33.795Z,61.08
2018-12-12T13:06:02.662Z,61.09
2018-12-12T13:08:31.165Z,61.37
2018-12-12T13:10:59.763Z,61.16
2018-12-12T13:13:28.164Z,61.31
2018-12-12T13:15:57.269Z,60.93
2018-12-12T13:18:25.862Z,61.38
2018-12-12T13:20:54.621Z,61.08
2018-12-12T13:23:23.128Z,61.11
2018-12-12T13:25:51.515Z,61.19
2018-12-12T13:28:23.185Z,61.01
2018-12-12T13:30:52.642Z,61.21
2018-12-12T13:33:21.008Z,61.49
2018-12-12T13:35:49.343Z,61.48
2018-12-12T13:38:17.731Z,61.43
2018-12-12T13:40:46.138Z,61.34
2018-12-12T13:45:56.158Z,61.41
2018-12-12T13:48:24.478Z,61.61
2018-12-12T13:50:52.848Z,61.15
2018-12-12T13:53:21.564Z,61.42
2018-12-12T13:55:49.892Z,61.67
2018-12-12T13:58:18.194Z,61.90
2018-12-12T14:00:46.542Z,61.48
2018-12-12T14:05:56.676Z,61.94
2018-12-12T14:08:25.305Z,61.93
2018-12-12T14:10:53.910Z,61.81
2018-12-12T14:13:22.180Z,61.62
2018-12-12T14:18:32.707Z,61.29
2018-12-12T14:21:01.596Z,61.64
2018-12-12T14:23:29.955Z,61.79
2018-12-12T14:25:58.845Z,61.84
2018-12-12T14:31:08.972Z,62.11
2018-12-12T14:33:37.303Z,62.11
2018-12-12T14:38:47.827Z,62.16
2018-12-12T14:41:16.178Z,61.66
2018-12-12T14:46:27.991Z,61.81
2018-12-12T14:48:56.760Z,61.87
2018-12-12T14:51:25.149Z,61.84
2018-12-12T14:53:53.446Z,62.29
2018-12-12T14:59:03.896Z,61.99
2018-12-12T15:01:32.237Z,61.88
2018-12-12T15:06:42.332Z,62.07
2018-12-12T15:09:10.613Z,61.88
2018-12-12T15:11:39.130Z,62.30
2018-12-12T15:14:07.475Z,62.01
2018-12-12T15:16:35.926Z,62.35
2018-12-12T15:19:04.500Z,62.08
2018-12-12T15:21:33.056Z,62.66
2018-12-12T15:24:01.454Z,62.10
2018-12-12T15:26:29.877Z,61.94
2018-12-12T15:31:39.900Z,62.14
2018-12-12T15:34:08.148Z,62.18
2018-12-12T15:39:18.178Z,62.11
2018-12-12T15:41:46.457Z,62.48
2018-12-12T15:46:56.877Z,62.37
2018-12-12T15:49:25.315Z,62.00
2018-12-12T15:51:53.769Z,62.63
2018-12-12T15:55:22.708Z,62.50
2018-12-12T16:01:38.412Z,62.09
2018-12-12T16:06:48.575Z,62.36
2018-12-12T16:09:17.324Z,62.47
2018-12-12T16:11:45.662Z,62.46
2018-12-12T16:16:58.684Z,62.77
2018-12-12T16:19:27.064Z,62.48
2018-12-12T16:21:55.524Z,62.94
2018-12-12T16:24:23.842Z,62.60
2018-12-12T16:26:53.188Z,63.23
2018-12-12T16:29:21.599Z,62.97
2018-12-12T16:31:49.903Z,62.71
2018-12-12T16:34:18.183Z,63.13
2018-12-12T16:36:46.472Z,63.32
2018-12-12T16:39:15.019Z,62.83
2018-12-12T16:41:43.339Z,62.96
2018-12-12T16:44:11.618Z,62.70
2018-12-12T16:46:46.383Z,62.98
2018-12-12T16:49:14.781Z,63.22
2018-12-12T16:51:43.155Z,62.81
2018-12-12T16:54:11.650Z,62.89
2018-12-12T16:56:40.112Z,62.95
2018-12-12T16:59:08.518Z,63.03
2018-12-12T17:01:36.836Z,63.41
2018-12-12T17:04:05.159Z,63.09
2018-12-12T17:09:15.335Z,63.63
2018-12-12T17:11:43.647Z,63.02
2018-12-12T17:14:11.925Z,63.51
2018-12-12T17:16:40.324Z,63.75
2018-12-12T17:19:08.624Z,63.41
2018-12-12T17:24:18.965Z,63.20
2018-12-12T17:29:29.384Z,63.17
2018-12-12T17:31:57.625Z,62.87
2018-12-12T17:34:25.961Z,62.57
2018-12-12T17:39:35.756Z,62.62
2018-12-12T17:42:04.079Z,62.83
2018-12-12T17:44:32.335Z,62.93
2018-12-12T17:49:42.607Z,63.13
2018-12-12T17:52:11.263Z,63.21
2018-12-12T17:57:21.572Z,62.88
2018-12-12T17:59:49.930Z,63.49
2018-12-12T18:02:19.611Z,62.85
2018-12-12T18:05:06.956Z,63.35
2018-12-12T18:07:35.531Z,63.12
2018-12-12T18:10:05.379Z,63.34
2018-12-12T18:12:33.781Z,62.83
2018-12-12T18:15:02.140Z,62.97
2018-12-12T18:17:32.506Z,63.47
2018-12-12T18:20:01.274Z,63.56
2018-12-12T18:25:11.977Z,63.31
2018-12-12T18:27:40.364Z,62.98
2018-12-12T18:30:09.052Z,63.30
2018-12-12T18:32:39.510Z,63.30
2018-12-12T18:35:14.011Z,63.58
2018-12-12T18:37:42.638Z,63.39
2018-12-12T18:40:11.091Z,63.53
2018-12-12T18:42:42.641Z,63.22
2018-12-12T18:45:11.077Z,62.99
2018-12-12T18:47:57.467Z,63.84
2018-12-12T18:50:28.354Z,63.45
2018-12-12T18:53:03.506Z,63.15
2018-12-12T18:55:32.347Z,63.00
2018-12-12T18:58:00.889Z,63.10
2018-12-12T19:00:29.240Z,63.50
2018-12-12T19:02:57.821Z,63.54
2018-12-12T19:05:28.412Z,63.63
2018-12-12T19:07:56.506Z,63.96
2018-12-12T19:10:25.291Z,63.77
2018-12-12T19:12:53.697Z,63.75
2018-12-12T19:15:22.059Z,64.05
2018-12-12T19:17:50.367Z,63.38
2018-12-12T19:20:19.051Z,63.39
2018-12-12T19:22:47.524Z,63.32
2018-12-12T19:25:15.891Z,63.50
2018-12-12T19:27:44.377Z,63.68
2018-12-12T19:30:12.683Z,63.65
2018-12-12T19:32:41.061Z,63.96
2018-12-12T19:35:10.189Z,63.47
2018-12-12T19:37:38.566Z,63.73
2018-12-12T19:40:08.359Z,64.18
2018-12-12T19:42:36.914Z,63.52
2018-12-12T19:45:06.519Z,64.19
2018-12-12T19:47:35.936Z,63.79
2018-12-12T19:52:47.985Z,64.47
2018-12-12T19:55:16.320Z,63.45
2018-12-12T19:57:44.784Z,64.12
2018-12-12T20:00:13.445Z,64.39
2018-12-12T20:02:41.982Z,64.44
2018-12-12T20:05:10.462Z,63.77
2018-12-12T20:07:38.949Z,64.04
2018-12-12T20:10:07.677Z,64.15
2018-12-12T20:15:23.515Z,64.60
2018-12-12T20:17:52.702Z,63.91
2018-12-12T20:20:22.247Z,64.42
2018-12-12T20:22:50.728Z,64.21
2018-12-12T20:25:19.642Z,64.74
2018-12-12T20:30:35.270Z,64.42
2018-12-12T20:33:00.235Z,64.71
2018-12-12T20:38:11.983Z,64.06
2018-12-12T20:40:40.515Z,64.96
2018-12-12T20:43:09.062Z,64.40
2018-12-12T20:45:37.450Z,64.53
2018-12-12T20:48:05.836Z,63.92
2018-12-12T20:50:34.237Z,64.30
2018-12-12T20:53:02.700Z,63.83
2018-12-12T20:55:31.130Z,64.18
2018-12-12T20:57:59.522Z,63.83
2018-12-12T21:00:27.837Z,64.75
2018-12-12T21:02:56.421Z,64.28
2018-12-12T21:05:24.879Z,64.85
2018-12-12T21:07:53.294Z,63.89
2018-12-12T21:10:21.689Z,63.89
2018-12-12T21:12:50.189Z,64.77
2018-12-12T21:15:18.524Z,64.17
2018-12-12T21:17:46.898Z,64.68
2018-12-12T21:20:15.282Z,64.60
2018-12-12T21:22:43.692Z,64.25
2018-12-12T21:25:12.271Z,64.74
2018-12-12T21:27:40.621Z,64.31
2018-12-12T21:30:09.046Z,64.79
2018-12-12T21:32:38.467Z,64.97
2018-12-12T21:35:07.619Z,64.39
2018-12-12T21:37:36.109Z,64.04
2018-12-12T21:40:04.946Z,64.97
2018-12-12T21:42:33.388Z,64.46
2018-12-12T21:45:01.940Z,64.48
2018-12-12T21:47:30.413Z,64.97
2018-12-12T21:49:58.716Z,64.83
2018-12-12T21:52:27.296Z,64.59
2018-12-12T21:54:55.629Z,63.98
2018-12-12T21:57:24.018Z,64.03
2018-12-12T22:02:34.259Z,63.94
2018-12-12T22:07:44.791Z,64.14
2018-12-12T22:10:13.249Z,64.26
2018-12-12T22:12:41.604Z,64.00
2018-12-12T22:15:10.042Z,64.79
2018-12-12T22:17:38.875Z,64.60
2018-12-12T22:22:49.409Z,64.27
2018-12-12T22:27:59.475Z,64.99
2018-12-12T22:30:27.893Z,65.60
2018-12-12T22:32:56.172Z,64.85
2018-12-12T22:35:24.655Z,64.40
2018-12-12T22:37:52.921Z,65.39
2018-12-12T22:40:21.262Z,64.43
2018-12-12T22:42:49.720Z,64.80
2018-12-12T22:45:18.039Z,65.41
2018-12-12T22:50:28.264Z,65.28
2018-12-12T22:52:56.600Z,64.75
2018-12-12T22:55:25.022Z,64.43
2018-12-12T22:57:53.527Z,65.20
2018-12-12T23:00:27.660Z,64.49
2018-12-12T23:02:58.063Z,65.07
2018-12-12T23:05:26.339Z,65.11
2018-12-12T23:10:36.380Z,64.54
2018-12-12T23:13:04.803Z,64.77
2018-12-12T23:18:14.972Z,65.06
2018-12-12T23:20:43.309Z,64.87
2018-12-12T23:23:11.609Z,65.41
2018-12-12T23:25:39.947Z,64.47
2018-12-12T23:28:08.246Z,64.82
2018-12-12T23:30:36.473Z,65.37
2018-12-12T23:33:05.805Z,65.34
2018-12-12T23:35:34.060Z,64.47
2018-12-12T23:38:02.470Z,64.58
2018-12-12T23:40:30.798Z,64.58
2018-12-12T23:42:59.233Z,64.69
2018-12-12T23:45:27.558Z,64.57
2018-12-12T23:47:55.917Z,65.14
2018-12-12T23:50:24.199Z,64.66
2018-12-12T23:52:52.479Z,64.60
2018-12-12T23:55:20.797Z,64.80
2018-12-12T23:57:49.106Z,64.56
